Caribe Navigator — V2PW6 — position and weather

sailwx.info

Track history (hours):
 
Tides and Currents Weather Stations Pressure Air Temp Water Temp Dewpoint Dewpoint Depression Visibility Wind Speed Wind Dir Waves Ship Positions

Caribe Navigator

Last reported at 2015-Jul-31 03:31 UTC. Time now 2015-Aug-01 11:47 UTC.
Position N 25°20' W 080°02'.

Length 100 m; draft 5.3 m.

Type: Cargo ship. MMSI: 305289000.

Date/timePositionNaut miles runAvg speedWind from/ knotsBaromVisibWave heightAir tempDewpointWater temp
2015-Jul-31 03:31N 25°20' W 080°02'1111.5
2015-Jul-31 02:33N 25°31' W 080°02'1110.8
2015-Jul-31 01:34N 25°42' W 080°02'1010.3
2015-Jul-31 00:33N 25°52' W 080°03'10 9.9
2015-Jul-30 23:33N 26°02' W 080°04'4 3.5
2015-Jul-30 22:22N 26°05' W 080°07'0 0.0
2015-Jul-30 21:25N 26°05' W 080°07'0 0.0
2015-Jul-30 20:25N 26°05' W 080°07'0 0.0
2015-Jul-30 19:28N 26°05' W 080°07'0 0.0
2015-Jul-30 18:28N 26°05' W 080°07'0 0.0
2015-Jul-30 17:28N 26°05' W 080°07'0 0.0
2015-Jul-30 16:28N 26°05' W 080°07'0 0.0
2015-Jul-30 15:28N 26°05' W 080°07'0 0.0
2015-Jul-30 14:31N 26°05' W 080°07'0 0.0
2015-Jul-30 13:31N 26°05' W 080°07'0 0.0
2015-Jul-30 12:31N 26°05' W 080°07'0 0.0
2015-Jul-30 11:31N 26°05' W 080°07'0 0.0
2015-Jul-30 10:31N 26°05' W 080°07'0 0.0
2015-Jul-30 09:31N 26°05' W 080°07'0 0.0
2015-Jul-30 08:31N 26°05' W 080°07'0 0.0
2015-Jul-30 07:19N 26°05' W 080°07'0 0.0
2015-Jul-30 06:31N 26°05' W 080°07'0 0.0
2015-Jul-30 05:31N 26°05' W 080°07'0 0.0
2015-Jul-30 04:31N 26°05' W 080°07'0 0.0
2015-Jul-30 03:31N 26°05' W 080°07'0 0.0
2015-Jul-30 02:31N 26°05' W 080°07'0 0.0
2015-Jul-30 01:22N 26°05' W 080°07'0 0.0
2015-Jul-30 00:22N 26°05' W 080°07'0 0.0
2015-Jul-29 23:34N 26°05' W 080°07'0 0.0
2015-Jul-29 22:33N 26°05' W 080°07'0 0.0
2015-Jul-29 21:33N 26°05' W 080°07'0 0.0
2015-Jul-29 20:24N 26°05' W 080°07'0 0.0
2015-Jul-29 19:24N 26°05' W 080°07'0 0.0
2015-Jul-29 18:27N 26°05' W 080°07'0 0.0
2015-Jul-29 17:27N 26°05' W 080°07'0 0.0
2015-Jul-29 16:27N 26°05' W 080°07'0 0.0
2015-Jul-29 15:27N 26°05' W 080°07'0 0.0
2015-Jul-29 14:27N 26°05' W 080°07'0 0.0
2015-Jul-29 13:33N 26°05' W 080°07'8 7.6
2015-Jul-29 12:33N 26°00' W 080°01'1212.2
2015-Jul-29 11:34N 25°49' W 079°55'  
2015-Jul-24 03:03N 25°18' W 080°04'510.6
2015-Jul-24 02:33N 25°23' W 080°01'1110.8
2015-Jul-24 01:33N 25°33' W 080°01'1211.5
2015-Jul-24 00:33N 25°45' W 080°02'1312.6
2015-Jul-23 23:33N 25°57' W 080°04'9 8.3
2015-Jul-23 22:29N 26°05' W 080°07'0 0.0
2015-Jul-23 21:29N 26°05' W 080°07'0 0.0
2015-Jul-23 20:29N 26°05' W 080°07'0 0.0
2015-Jul-23 19:29N 26°05' W 080°07'0 0.0
2015-Jul-23 18:32N 26°05' W 080°07'0 0.0
2015-Jul-23 17:32N 26°05' W 080°07'0 0.0
2015-Jul-23 16:32N 26°05' W 080°07'0 0.0
2015-Jul-23 15:32N 26°05' W 080°07'0 0.0
2015-Jul-23 14:32N 26°05' W 080°07'0 0.0
2015-Jul-23 13:32N 26°05' W 080°07'0 0.0
2015-Jul-23 12:32N 26°05' W 080°07'0 0.0
2015-Jul-23 11:32N 26°05' W 080°07'0 0.0
2015-Jul-23 10:32N 26°05' W 080°07'0 0.0
2015-Jul-23 09:32N 26°05' W 080°07'0 0.0
2015-Jul-23 08:32N 26°05' W 080°07'0 0.0
2015-Jul-23 07:32N 26°05' W 080°07'0 0.0
2015-Jul-23 06:32N 26°05' W 080°07'0 0.0
2015-Jul-23 05:23N 26°05' W 080°07'0 0.0
2015-Jul-23 04:23N 26°05' W 080°07'0 0.0
2015-Jul-23 03:26N 26°05' W 080°07'0 0.0
2015-Jul-23 02:26N 26°05' W 080°07'0 0.0
2015-Jul-23 01:26N 26°05' W 080°07'0 0.0
2015-Jul-23 00:26N 26°05' W 080°07'0 0.0
2015-Jul-22 23:26N 26°05' W 080°07'0 0.0
2015-Jul-22 22:29N 26°05' W 080°07'0 0.0
2015-Jul-22 21:29N 26°05' W 080°07'0 0.0
2015-Jul-22 20:31N 26°05' W 080°07'0 0.0
2015-Jul-22 19:28N 26°05' W 080°07'0 0.0
2015-Jul-22 18:28N 26°05' W 080°07'0 0.0
2015-Jul-22 17:31N 26°05' W 080°07'0 0.0
2015-Jul-22 16:31N 26°05' W 080°07'0 0.0
2015-Jul-22 15:31N 26°05' W 080°07'0 0.0
2015-Jul-22 14:31N 26°05' W 080°07'0 0.2
2015-Jul-22 13:34N 26°06' W 080°07'1212.3
2015-Jul-22 12:33N 25°56' W 079°59'1817.8
2015-Jul-22 11:32N 25°40' W 079°49'  
Track history (hours):
 
Tides and Currents Weather Stations Pressure Air Temp Water Temp Dewpoint Dewpoint Depression Visibility Wind Speed Wind Dir Waves Ship Positions

Caribe Navigator

Last reported at 2015-Jul-31 03:31 UTC. Time now 2015-Aug-01 11:47 UTC.
Position N 25°20' W 080°02'.

Length 100 m; draft 5.3 m.

Type: Cargo ship. MMSI: 305289000.

Date/timePositionNaut miles runAvg speedWind from/ knotsBaromVisibWave heightAir tempDewpointWater temp
2015-Jul-31 03:31N 25°20' W 080°02'1111.5
2015-Jul-31 02:33N 25°31' W 080°02'1110.8
2015-Jul-31 01:34N 25°42' W 080°02'1010.3
2015-Jul-31 00:33N 25°52' W 080°03'10 9.9
2015-Jul-30 23:33N 26°02' W 080°04'4 3.5
2015-Jul-30 22:22N 26°05' W 080°07'0 0.0
2015-Jul-30 21:25N 26°05' W 080°07'0 0.0
2015-Jul-30 20:25N 26°05' W 080°07'0 0.0
2015-Jul-30 19:28N 26°05' W 080°07'0 0.0
2015-Jul-30 18:28N 26°05' W 080°07'0 0.0
2015-Jul-30 17:28N 26°05' W 080°07'0 0.0
2015-Jul-30 16:28N 26°05' W 080°07'0 0.0
2015-Jul-30 15:28N 26°05' W 080°07'0 0.0
2015-Jul-30 14:31N 26°05' W 080°07'0 0.0
2015-Jul-30 13:31N 26°05' W 080°07'0 0.0
2015-Jul-30 12:31N 26°05' W 080°07'0 0.0
2015-Jul-30 11:31N 26°05' W 080°07'0 0.0
2015-Jul-30 10:31N 26°05' W 080°07'0 0.0
2015-Jul-30 09:31N 26°05' W 080°07'0 0.0
2015-Jul-30 08:31N 26°05' W 080°07'0 0.0
2015-Jul-30 07:19N 26°05' W 080°07'0 0.0
2015-Jul-30 06:31N 26°05' W 080°07'0 0.0
2015-Jul-30 05:31N 26°05' W 080°07'0 0.0
2015-Jul-30 04:31N 26°05' W 080°07'0 0.0
2015-Jul-30 03:31N 26°05' W 080°07'0 0.0
2015-Jul-30 02:31N 26°05' W 080°07'0 0.0
2015-Jul-30 01:22N 26°05' W 080°07'0 0.0
2015-Jul-30 00:22N 26°05' W 080°07'0 0.0
2015-Jul-29 23:34N 26°05' W 080°07'0 0.0
2015-Jul-29 22:33N 26°05' W 080°07'0 0.0
2015-Jul-29 21:33N 26°05' W 080°07'0 0.0
2015-Jul-29 20:24N 26°05' W 080°07'0 0.0
2015-Jul-29 19:24N 26°05' W 080°07'0 0.0
2015-Jul-29 18:27N 26°05' W 080°07'0 0.0
2015-Jul-29 17:27N 26°05' W 080°07'0 0.0
2015-Jul-29 16:27N 26°05' W 080°07'0 0.0
2015-Jul-29 15:27N 26°05' W 080°07'0 0.0
2015-Jul-29 14:27N 26°05' W 080°07'0 0.0
2015-Jul-29 13:33N 26°05' W 080°07'8 7.6
2015-Jul-29 12:33N 26°00' W 080°01'1212.2
2015-Jul-29 11:34N 25°49' W 079°55'  
2015-Jul-24 03:03N 25°18' W 080°04'510.6
2015-Jul-24 02:33N 25°23' W 080°01'1110.8
2015-Jul-24 01:33N 25°33' W 080°01'1211.5
2015-Jul-24 00:33N 25°45' W 080°02'1312.6
2015-Jul-23 23:33N 25°57' W 080°04'9 8.3
2015-Jul-23 22:29N 26°05' W 080°07'0 0.0
2015-Jul-23 21:29N 26°05' W 080°07'0 0.0
2015-Jul-23 20:29N 26°05' W 080°07'0 0.0
2015-Jul-23 19:29N 26°05' W 080°07'0 0.0
2015-Jul-23 18:32N 26°05' W 080°07'0 0.0
2015-Jul-23 17:32N 26°05' W 080°07'0 0.0
2015-Jul-23 16:32N 26°05' W 080°07'0 0.0
2015-Jul-23 15:32N 26°05' W 080°07'0 0.0
2015-Jul-23 14:32N 26°05' W 080°07'0 0.0
2015-Jul-23 13:32N 26°05' W 080°07'0 0.0
2015-Jul-23 12:32N 26°05' W 080°07'0 0.0
2015-Jul-23 11:32N 26°05' W 080°07'0 0.0
2015-Jul-23 10:32N 26°05' W 080°07'0 0.0
2015-Jul-23 09:32N 26°05' W 080°07'0 0.0
2015-Jul-23 08:32N 26°05' W 080°07'0 0.0
2015-Jul-23 07:32N 26°05' W 080°07'0 0.0
2015-Jul-23 06:32N 26°05' W 080°07'0 0.0
2015-Jul-23 05:23N 26°05' W 080°07'0 0.0
2015-Jul-23 04:23N 26°05' W 080°07'0 0.0
2015-Jul-23 03:26N 26°05' W 080°07'0 0.0
2015-Jul-23 02:26N 26°05' W 080°07'0 0.0
2015-Jul-23 01:26N 26°05' W 080°07'0 0.0
2015-Jul-23 00:26N 26°05' W 080°07'0 0.0
2015-Jul-22 23:26N 26°05' W 080°07'0 0.0
2015-Jul-22 22:29N 26°05' W 080°07'0 0.0
2015-Jul-22 21:29N 26°05' W 080°07'0 0.0
2015-Jul-22 20:31N 26°05' W 080°07'0 0.0
2015-Jul-22 19:28N 26°05' W 080°07'0 0.0
2015-Jul-22 18:28N 26°05' W 080°07'0 0.0
2015-Jul-22 17:31N 26°05' W 080°07'0 0.0
2015-Jul-22 16:31N 26°05' W 080°07'0 0.0
2015-Jul-22 15:31N 26°05' W 080°07'0 0.0
2015-Jul-22 14:31N 26°05' W 080°07'0 0.2
2015-Jul-22 13:34N 26°06' W 080°07'1212.3
2015-Jul-22 12:33N 25°56' W 079°59'1817.8
2015-Jul-22 11:32N 25°40' W 079°49'  

Dump ship's entire track history